createdAt,value
2022-11-09T00:02:02.339Z,6.40
2022-11-09T00:04:33.979Z,6.50
2022-11-09T00:07:04.706Z,6.60
2022-11-09T00:09:35.522Z,6.50
2022-11-09T00:12:08.097Z,6.50
2022-11-09T00:14:39.324Z,6.50
2022-11-09T00:17:09.310Z,6.50
2022-11-09T00:19:41.661Z,6.50
2022-11-09T00:22:13.355Z,6.40
2022-11-09T00:24:44.542Z,6.40
2022-11-09T00:27:17.814Z,6.50
2022-11-09T00:29:48.980Z,6.40
2022-11-09T00:32:26.639Z,6.40
2022-11-09T00:34:59.394Z,6.30
2022-11-09T00:37:31.899Z,6.40
2022-11-09T00:40:02.891Z,6.30
2022-11-09T00:42:34.397Z,6.30
2022-11-09T00:45:05.575Z,6.30
2022-11-09T00:47:35.253Z,6.30
2022-11-09T00:50:08.226Z,6.40
2022-11-09T00:52:40.908Z,6.40
2022-11-09T00:55:11.268Z,6.30
2022-11-09T00:57:41.731Z,6.40
2022-11-09T01:00:14.830Z,6.40
2022-11-09T01:02:43.736Z,6.40
2022-11-09T01:05:13.678Z,6.40
2022-11-09T01:07:42.300Z,6.40
2022-11-09T01:10:11.029Z,6.40
2022-11-09T01:12:39.521Z,6.40
2022-11-09T01:15:09.812Z,6.50
2022-11-09T01:17:38.465Z,6.50
2022-11-09T01:20:07.835Z,8.10
2022-11-09T01:22:38.430Z,6.50
2022-11-09T01:25:07.459Z,6.40
2022-11-09T01:27:36.193Z,6.40
2022-11-09T01:30:07.883Z,6.50
2022-11-09T01:32:36.559Z,6.40
2022-11-09T01:35:07.285Z,6.30
2022-11-09T01:37:35.896Z,6.40
2022-11-09T01:40:06.115Z,6.40
2022-11-09T01:42:37.191Z,6.40
2022-11-09T01:45:24.342Z,6.30
2022-11-09T01:47:55.664Z,6.20
2022-11-09T01:50:27.867Z,6.20
2022-11-09T01:52:56.730Z,6.20
2022-11-09T01:55:26.916Z,6.20
2022-11-09T01:57:57.666Z,6.10
2022-11-09T02:00:26.239Z,6.10
2022-11-09T02:02:57.323Z,6.00
2022-11-09T02:05:29.305Z,6.00
2022-11-09T02:07:58.728Z,6.10
2022-11-09T02:10:30.724Z,6.10
2022-11-09T02:13:01.684Z,6.10
2022-11-09T02:15:30.314Z,6.10
2022-11-09T02:17:59.388Z,6.10
2022-11-09T02:20:29.441Z,6.10
2022-11-09T02:23:00.566Z,6.20
2022-11-09T02:25:29.815Z,6.20
2022-11-09T02:27:58.413Z,6.20
2022-11-09T02:30:27.446Z,6.20
2022-11-09T02:32:55.920Z,6.20
2022-11-09T02:35:24.647Z,6.20
2022-11-09T02:37:54.624Z,6.10
2022-11-09T02:40:25.425Z,6.10
2022-11-09T02:42:55.665Z,6.10
2022-11-09T02:45:24.200Z,6.20
2022-11-09T02:47:52.817Z,6.20
2022-11-09T02:50:21.670Z,6.10
2022-11-09T02:52:50.262Z,6.10
2022-11-09T02:55:20.948Z,6.00
2022-11-09T02:57:49.634Z,6.00
2022-11-09T03:00:18.428Z,5.90
2022-11-09T03:02:47.194Z,5.90
2022-11-09T03:05:16.426Z,5.80
2022-11-09T03:07:46.723Z,5.90
2022-11-09T03:10:16.032Z,5.90
2022-11-09T03:12:46.102Z,5.90
2022-11-09T03:15:16.114Z,5.90
2022-11-09T03:17:47.338Z,5.90
2022-11-09T03:20:16.888Z,5.90
2022-11-09T03:22:45.486Z,6.00
2022-11-09T03:25:14.409Z,5.90
2022-11-09T03:27:43.157Z,6.00
2022-11-09T03:30:14.891Z,6.00
2022-11-09T03:32:49.470Z,6.00
2022-11-09T03:35:19.235Z,6.00
2022-11-09T03:37:48.438Z,6.10
2022-11-09T03:40:17.920Z,6.00
2022-11-09T03:42:48.221Z,6.00
2022-11-09T03:45:18.481Z,6.00
2022-11-09T03:47:48.082Z,6.10
2022-11-09T03:50:17.543Z,6.00
2022-11-09T03:52:46.875Z,6.00
2022-11-09T03:55:15.879Z,6.00
2022-11-09T03:57:45.343Z,6.00
2022-11-09T04:00:14.898Z,5.90
2022-11-09T04:02:44.868Z,5.80
2022-11-09T04:05:13.836Z,5.80
2022-11-09T04:07:47.266Z,5.90
2022-11-09T04:10:15.937Z,5.80
2022-11-09T04:12:44.636Z,5.80
2022-11-09T04:15:13.262Z,5.80
2022-11-09T04:17:42.095Z,5.70
2022-11-09T04:20:12.764Z,5.80
2022-11-09T04:22:41.272Z,5.80
2022-11-09T04:25:10.084Z,5.70
2022-11-09T04:27:38.640Z,5.70
2022-11-09T04:30:07.730Z,5.70
2022-11-09T04:32:36.431Z,5.70
2022-11-09T04:35:05.062Z,5.70
2022-11-09T04:37:35.027Z,5.70
2022-11-09T04:40:03.644Z,5.60
2022-11-09T04:42:32.755Z,5.50
2022-11-09T04:45:01.580Z,5.50
2022-11-09T04:47:30.160Z,5.50
2022-11-09T04:49:58.842Z,5.40
2022-11-09T04:52:27.372Z,5.50
2022-11-09T04:54:57.562Z,5.60
2022-11-09T04:57:26.167Z,5.60
2022-11-09T04:59:54.763Z,5.60
2022-11-09T05:02:23.358Z,5.60
2022-11-09T05:04:52.046Z,5.60
2022-11-09T05:07:20.682Z,5.50
2022-11-09T05:09:49.298Z,5.50
2022-11-09T05:12:19.082Z,5.50
2022-11-09T05:14:47.684Z,5.50
2022-11-09T05:17:16.174Z,5.40
2022-11-09T05:19:44.763Z,5.40
2022-11-09T05:22:31.093Z,5.40
2022-11-09T05:24:59.685Z,5.50
2022-11-09T05:27:29.482Z,5.60
2022-11-09T05:29:58.185Z,5.60
2022-11-09T05:32:26.724Z,5.50
2022-11-09T05:34:55.357Z,5.50
2022-11-09T05:37:23.886Z,5.50
2022-11-09T05:39:52.581Z,5.50
2022-11-09T05:42:21.133Z,5.60
2022-11-09T05:44:51.092Z,5.60
2022-11-09T05:47:20.298Z,5.60
2022-11-09T05:49:48.880Z,5.50
2022-11-09T05:52:17.551Z,5.50
2022-11-09T05:54:46.211Z,5.40
2022-11-09T05:57:14.974Z,5.40
2022-11-09T05:59:43.654Z,5.50
2022-11-09T06:02:13.593Z,5.40
2022-11-09T06:04:42.346Z,5.50
2022-11-09T06:07:11.165Z,5.50
2022-11-09T06:09:39.835Z,5.60
2022-11-09T06:12:08.704Z,5.60
2022-11-09T06:14:37.412Z,5.60
2022-11-09T06:17:06.012Z,5.70
2022-11-09T06:19:36.026Z,5.80
2022-11-09T06:22:04.694Z,5.80
2022-11-09T06:24:33.255Z,5.80
2022-11-09T06:27:02.287Z,5.80
2022-11-09T06:29:31.153Z,5.90
2022-11-09T06:31:59.920Z,5.90
2022-11-09T06:34:30.444Z,5.90
2022-11-09T06:37:00.478Z,6.00
2022-11-09T06:39:28.939Z,6.00
2022-11-09T06:41:57.845Z,6.10
2022-11-09T06:44:26.417Z,6.10
2022-11-09T06:46:55.263Z,6.20
2022-11-09T06:49:23.784Z,6.20
2022-11-09T06:51:52.738Z,6.30
2022-11-09T06:54:22.718Z,6.40
2022-11-09T06:56:51.298Z,6.50
2022-11-09T06:59:19.851Z,6.60
2022-11-09T07:01:48.925Z,6.80
2022-11-09T07:04:17.696Z,6.90
2022-11-09T07:06:46.346Z,7.00
2022-11-09T07:09:15.160Z,7.00
2022-11-09T07:11:45.052Z,7.00
2022-11-09T07:14:13.770Z,7.00
2022-11-09T07:16:42.294Z,7.10
2022-11-09T07:19:10.968Z,7.10
2022-11-09T07:21:39.442Z,7.20
2022-11-09T07:24:08.340Z,7.20
2022-11-09T07:26:36.936Z,7.30
2022-11-09T07:29:06.932Z,7.30
2022-11-09T07:31:35.670Z,7.40
2022-11-09T07:34:05.001Z,7.50
2022-11-09T07:36:34.062Z,7.60
2022-11-09T07:39:02.671Z,7.60
2022-11-09T07:41:34.659Z,7.70
2022-11-09T07:44:04.016Z,7.70
2022-11-09T07:46:35.854Z,7.80
2022-11-09T07:49:04.451Z,7.90
2022-11-09T07:51:33.333Z,8.10
2022-11-09T07:54:01.953Z,8.20
2022-11-09T07:56:30.575Z,8.10
2022-11-09T07:58:59.413Z,8.20
2022-11-09T08:01:28.090Z,8.20
2022-11-09T08:03:58.153Z,8.30
2022-11-09T08:06:29.579Z,8.30
2022-11-09T08:09:01.188Z,8.50
2022-11-09T08:11:29.921Z,8.60
2022-11-09T08:13:58.722Z,8.60
2022-11-09T08:16:27.306Z,8.80
2022-11-09T08:18:55.942Z,8.90
2022-11-09T08:21:25.995Z,9.00
2022-11-09T08:23:54.784Z,9.20
2022-11-09T08:26:23.419Z,9.30
2022-11-09T08:28:52.069Z,9.40
2022-11-09T08:31:20.744Z,9.50
2022-11-09T08:33:49.299Z,9.50
2022-11-09T08:36:19.076Z,9.80
2022-11-09T08:38:48.998Z,9.90
2022-11-09T08:41:17.734Z,10.00
2022-11-09T08:43:46.304Z,10.10
2022-11-09T08:46:15.045Z,10.30
2022-11-09T08:48:43.678Z,10.40
2022-11-09T08:51:12.689Z,10.40
2022-11-09T08:53:41.575Z,10.30
2022-11-09T08:56:13.052Z,10.20
2022-11-09T08:58:41.698Z,10.30
2022-11-09T09:01:16.406Z,10.20
2022-11-09T09:03:46.742Z,10.20
2022-11-09T09:06:15.453Z,10.20
2022-11-09T09:08:44.109Z,10.30
2022-11-09T09:11:21.542Z,10.30
2022-11-09T09:13:50.081Z,10.20
2022-11-09T09:16:18.702Z,10.30
2022-11-09T09:18:48.644Z,10.30
2022-11-09T09:21:17.477Z,10.30
2022-11-09T09:23:48.202Z,10.30
2022-11-09T09:26:17.026Z,10.30
2022-11-09T09:28:46.964Z,10.40
2022-11-09T09:31:18.419Z,10.60
2022-11-09T09:33:47.871Z,10.80
2022-11-09T09:36:18.031Z,10.90
2022-11-09T09:38:46.774Z,11.10
2022-11-09T09:41:19.404Z,11.20
2022-11-09T09:43:50.121Z,11.30
2022-11-09T09:46:21.193Z,11.30
2022-11-09T09:48:52.884Z,11.30
2022-11-09T09:51:25.573Z,11.40
2022-11-09T09:53:56.322Z,11.40
2022-11-09T09:56:26.241Z,11.50
2022-11-09T09:58:57.924Z,11.50
2022-11-09T10:01:30.211Z,11.60
2022-11-09T10:03:59.105Z,11.70
2022-11-09T10:06:34.951Z,11.80
2022-11-09T10:09:10.308Z,11.80
2022-11-09T10:11:43.126Z,11.90
2022-11-09T10:14:23.834Z,11.80
2022-11-09T10:16:57.211Z,11.90
2022-11-09T10:19:34.011Z,11.90
2022-11-09T10:22:07.289Z,12.00
2022-11-09T10:24:58.579Z,12.10
2022-11-09T10:27:34.126Z,12.20
2022-11-09T10:30:08.960Z,12.20
2022-11-09T10:32:37.858Z,12.20
2022-11-09T10:35:09.221Z,12.30
2022-11-09T10:37:39.230Z,12.40
2022-11-09T10:40:16.965Z,12.50
2022-11-09T10:43:07.846Z,12.60
2022-11-09T10:46:04.747Z,12.60
2022-11-09T10:48:52.723Z,12.60
2022-11-09T10:51:40.969Z,12.70
2022-11-09T10:54:29.725Z,12.70
2022-11-09T10:57:18.207Z,12.70
2022-11-09T11:00:06.914Z,12.80
2022-11-09T11:02:56.084Z,12.80
2022-11-09T11:05:43.506Z,12.80
2022-11-09T11:08:35.500Z,12.90
2022-11-09T11:11:33.771Z,12.90
2022-11-09T11:14:24.163Z,13.00
2022-11-09T11:17:21.860Z,13.10
2022-11-09T11:20:27.609Z,13.20
2022-11-09T11:23:17.556Z,13.10
2022-11-09T11:26:13.237Z,13.10
2022-11-09T11:29:02.020Z,13.10
2022-11-09T11:31:49.755Z,13.10
2022-11-09T11:34:58.968Z,13.20
2022-11-09T11:37:49.469Z,13.20
2022-11-09T11:40:42.695Z,13.20
2022-11-09T11:43:34.628Z,13.30
2022-11-09T11:46:28.623Z,13.40
2022-11-09T11:49:28.527Z,13.30
2022-11-09T11:52:18.956Z,13.50
2022-11-09T11:55:18.673Z,13.70
2022-11-09T11:58:27.130Z,13.60
2022-11-09T12:01:20.073Z,13.60
2022-11-09T12:04:14.212Z,13.50
2022-11-09T12:07:06.698Z,13.50
2022-11-09T12:10:03.801Z,13.50
2022-11-09T12:12:56.169Z,13.60
2022-11-09T12:15:51.929Z,13.50
2022-11-09T12:18:43.734Z,13.50
2022-11-09T12:21:34.211Z,13.60
2022-11-09T12:24:24.280Z,13.50
2022-11-09T12:27:36.322Z,13.60
2022-11-09T12:30:25.085Z,13.60
2022-11-09T12:33:16.825Z,13.50
2022-11-09T12:36:08.975Z,13.40
2022-11-09T12:39:00.252Z,13.30
2022-11-09T12:41:48.645Z,13.30
2022-11-09T12:44:38.853Z,13.30
2022-11-09T12:47:29.099Z,13.20
2022-11-09T12:50:19.397Z,13.20
2022-11-09T12:53:06.332Z,13.20
2022-11-09T12:55:56.347Z,13.10
2022-11-09T12:58:43.496Z,13.20
2022-11-09T13:01:49.146Z,13.20
2022-11-09T13:04:36.360Z,13.20
2022-11-09T13:07:31.331Z,13.20
2022-11-09T13:10:30.471Z,13.20
2022-11-09T13:16:20.044Z,13.10
2022-11-09T13:19:07.872Z,13.20
2022-11-09T13:21:55.383Z,13.10
2022-11-09T13:27:42.562Z,12.80
2022-11-09T13:30:52.061Z,12.70
2022-11-09T13:33:41.171Z,12.70
2022-11-09T13:36:28.573Z,12.60
2022-11-09T13:39:30.086Z,12.50
2022-11-09T13:42:25.287Z,12.50
2022-11-09T13:45:27.758Z,12.40
2022-11-09T13:48:33.426Z,12.30
2022-11-09T13:51:23.299Z,12.30
2022-11-09T13:54:25.085Z,12.20
2022-11-09T13:57:12.783Z,12.10
2022-11-09T14:00:01.726Z,12.10
2022-11-09T14:02:55.358Z,12.00
2022-11-09T14:05:44.055Z,12.10
2022-11-09T14:08:36.221Z,12.00
2022-11-09T14:11:45.345Z,12.00
2022-11-09T14:14:59.317Z,12.00
2022-11-09T14:17:52.131Z,11.90
2022-11-09T14:20:43.148Z,11.90
2022-11-09T14:23:34.777Z,12.00
2022-11-09T14:26:23.819Z,12.00
2022-11-09T14:29:21.998Z,12.00
2022-11-09T14:32:23.545Z,12.00
2022-11-09T14:35:30.032Z,11.90
2022-11-09T14:38:20.479Z,11.90
2022-11-09T14:41:18.626Z,11.80
2022-11-09T14:44:06.490Z,11.70
2022-11-09T14:46:53.856Z,11.70
2022-11-09T14:49:41.309Z,11.60
2022-11-09T14:52:29.970Z,11.50
2022-11-09T14:55:20.137Z,11.40
2022-11-09T14:58:08.016Z,11.40
2022-11-09T15:01:08.697Z,11.30
2022-11-09T15:04:09.763Z,11.30
2022-11-09T15:07:00.264Z,11.20
2022-11-09T15:09:49.169Z,11.10
2022-11-09T15:12:42.521Z,11.00
2022-11-09T15:15:34.184Z,11.00
2022-11-09T15:18:23.866Z,10.80
2022-11-09T15:21:15.105Z,10.80
2022-11-09T15:24:07.350Z,10.80
2022-11-09T15:26:54.957Z,10.80
2022-11-09T15:29:43.806Z,10.70
2022-11-09T15:32:34.729Z,10.70
2022-11-09T15:35:22.473Z,10.70
2022-11-09T15:38:28.979Z,10.70
2022-11-09T15:41:17.431Z,10.60
2022-11-09T15:44:04.739Z,10.70
2022-11-09T15:46:53.731Z,10.70
2022-11-09T15:49:40.928Z,10.70
2022-11-09T15:52:27.965Z,10.70
2022-11-09T15:55:16.143Z,10.70
2022-11-09T15:58:03.247Z,10.70
2022-11-09T16:00:50.716Z,10.70
2022-11-09T16:03:39.594Z,10.70
2022-11-09T16:06:27.404Z,10.50
2022-11-09T16:09:14.431Z,10.50
2022-11-09T16:12:01.289Z,10.40
2022-11-09T16:14:48.481Z,10.40
2022-11-09T16:17:35.714Z,10.40
2022-11-09T16:20:24.685Z,10.30
2022-11-09T16:23:11.903Z,10.30
2022-11-09T16:25:59.829Z,10.20
2022-11-09T16:28:47.393Z,10.10
2022-11-09T16:31:50.908Z,10.10
2022-11-09T16:34:39.203Z,10.10
2022-11-09T16:37:27.530Z,10.10
2022-11-09T16:40:14.766Z,10.10
2022-11-09T16:43:02.084Z,10.10
2022-11-09T16:45:50.580Z,10.00
2022-11-09T16:48:37.821Z,10.00
2022-11-09T16:51:24.752Z,9.90
2022-11-09T16:54:12.954Z,9.90
2022-11-09T16:57:00.872Z,9.80
2022-11-09T16:59:48.301Z,9.80
2022-11-09T17:02:35.174Z,9.70
2022-11-09T17:05:22.502Z,9.60
2022-11-09T17:08:10.205Z,9.60
2022-11-09T17:10:58.292Z,9.50
2022-11-09T17:13:45.427Z,9.40
2022-11-09T17:16:32.390Z,9.30
2022-11-09T17:19:20.541Z,9.20
2022-11-09T17:22:08.353Z,9.10
2022-11-09T17:24:55.843Z,9.00
2022-11-09T17:27:44.019Z,9.00
2022-11-09T17:30:31.460Z,9.00
2022-11-09T17:33:18.972Z,8.90
2022-11-09T17:36:07.366Z,8.90
2022-11-09T17:38:54.575Z,8.90
2022-11-09T17:41:43.019Z,9.00
2022-11-09T17:44:31.776Z,9.10
2022-11-09T17:47:18.977Z,9.10
2022-11-09T17:50:06.785Z,9.10
2022-11-09T17:52:53.658Z,9.10
2022-11-09T17:55:41.283Z,9.10
2022-11-09T17:58:29.365Z,9.10
2022-11-09T18:01:19.989Z,9.10
2022-11-09T18:04:07.626Z,9.20
2022-11-09T18:06:54.603Z,9.20
2022-11-09T18:09:42.870Z,9.30
2022-11-09T18:12:30.183Z,9.30
2022-11-09T18:15:17.549Z,9.40
2022-11-09T18:18:07.483Z,9.40
2022-11-09T18:20:55.416Z,9.50
2022-11-09T18:23:43.240Z,9.50
2022-11-09T18:26:31.456Z,9.60
2022-11-09T18:29:18.874Z,9.60
2022-11-09T18:32:06.108Z,9.60
2022-11-09T18:34:54.465Z,9.60
2022-11-09T18:37:41.805Z,9.50
2022-11-09T18:40:28.932Z,9.50
2022-11-09T18:43:16.533Z,9.40
2022-11-09T18:46:04.593Z,9.30
2022-11-09T18:48:52.126Z,9.20
2022-11-09T18:51:40.813Z,9.10
2022-11-09T18:54:28.394Z,9.10
2022-11-09T18:57:19.617Z,9.00
2022-11-09T19:00:07.644Z,8.90
2022-11-09T19:02:55.161Z,9.10
2022-11-09T19:05:43.602Z,9.20
2022-11-09T19:08:49.899Z,9.10
2022-11-09T19:11:37.687Z,9.20
2022-11-09T19:14:25.138Z,9.20
2022-11-09T19:17:13.670Z,9.30
2022-11-09T19:20:00.901Z,9.20
2022-11-09T19:22:48.400Z,9.20
2022-11-09T19:25:36.551Z,9.30
2022-11-09T19:28:23.989Z,9.30
2022-11-09T19:31:13.257Z,9.20
2022-11-09T19:34:00.493Z,9.20
2022-11-09T19:36:48.528Z,9.20
2022-11-09T19:39:39.141Z,9.20
2022-11-09T19:42:30.388Z,9.20
2022-11-09T19:45:17.789Z,9.20
2022-11-09T19:48:05.362Z,9.20
2022-11-09T19:50:53.164Z,9.30
2022-11-09T19:53:42.502Z,9.20
2022-11-09T19:56:30.685Z,9.30
2022-11-09T19:59:20.859Z,9.30
2022-11-09T20:02:08.380Z,9.50
2022-11-09T20:04:55.315Z,9.50
2022-11-09T20:07:43.531Z,9.60
2022-11-09T20:10:30.837Z,9.60
2022-11-09T20:13:19.107Z,9.50
2022-11-09T20:16:09.629Z,9.50
2022-11-09T20:18:57.208Z,9.50
2022-11-09T20:21:45.118Z,9.50
2022-11-09T20:24:32.604Z,9.40
2022-11-09T20:27:19.899Z,9.40
2022-11-09T20:30:08.087Z,9.30
2022-11-09T20:32:57.013Z,9.30
2022-11-09T20:35:52.439Z,9.20
2022-11-09T20:38:39.885Z,9.10
2022-11-09T20:41:27.316Z,9.10
2022-11-09T20:44:14.557Z,9.00
2022-11-09T20:47:04.666Z,8.90
2022-11-09T20:49:53.502Z,8.80
2022-11-09T20:52:40.834Z,8.60
2022-11-09T20:55:27.620Z,8.50
2022-11-09T20:58:15.420Z,8.40
2022-11-09T21:01:05.857Z,8.30
2022-11-09T21:03:55.767Z,8.30
2022-11-09T21:06:45.958Z,8.20
2022-11-09T21:09:35.672Z,8.20
2022-11-09T21:12:25.235Z,8.00
2022-11-09T21:15:15.527Z,8.00
2022-11-09T21:18:04.665Z,8.00
2022-11-09T21:20:52.816Z,8.00
2022-11-09T21:23:59.489Z,8.00
2022-11-09T21:27:05.464Z,8.00
2022-11-09T21:29:55.455Z,8.10
2022-11-09T21:32:45.181Z,8.10
2022-11-09T21:35:35.121Z,8.10
2022-11-09T21:38:24.606Z,8.10
2022-11-09T21:41:31.550Z,8.10
2022-11-09T21:44:20.863Z,8.10
2022-11-09T21:47:09.885Z,8.10
2022-11-09T21:49:57.932Z,8.00
2022-11-09T21:52:46.855Z,8.00
2022-11-09T21:55:36.003Z,8.00
2022-11-09T21:58:26.638Z,7.90
2022-11-09T22:01:16.041Z,7.80
2022-11-09T22:04:05.178Z,7.60
2022-11-09T22:06:53.592Z,7.50
2022-11-09T22:10:08.121Z,7.60
2022-11-09T22:13:08.739Z,7.50
2022-11-09T22:16:12.977Z,7.50
2022-11-09T22:19:20.935Z,7.40
2022-11-09T22:22:12.946Z,7.30
2022-11-09T22:25:02.622Z,7.30
2022-11-09T22:27:51.482Z,7.30
2022-11-09T22:30:39.663Z,7.20
2022-11-09T22:33:30.336Z,7.20
2022-11-09T22:36:18.887Z,7.30
2022-11-09T22:39:06.201Z,7.30
2022-11-09T22:41:55.886Z,7.20
2022-11-09T22:44:44.945Z,7.30
2022-11-09T22:47:35.374Z,7.20
2022-11-09T22:50:25.990Z,7.30
2022-11-09T22:53:15.255Z,7.30
2022-11-09T22:56:04.696Z,7.30
2022-11-09T22:58:54.511Z,7.30
2022-11-09T23:01:41.849Z,7.30
2022-11-09T23:04:30.277Z,7.30
2022-11-09T23:07:20.079Z,7.20
2022-11-09T23:10:11.155Z,7.20
2022-11-09T23:13:00.129Z,7.20
2022-11-09T23:15:55.532Z,7.20
2022-11-09T23:18:56.288Z,7.20
2022-11-09T23:21:43.521Z,7.20
2022-11-09T23:24:50.557Z,7.30
2022-11-09T23:27:38.877Z,7.30
2022-11-09T23:30:28.008Z,7.30
2022-11-09T23:33:16.452Z,8.50
2022-11-09T23:36:05.286Z,7.30
2022-11-09T23:38:53.554Z,7.30
2022-11-09T23:41:41.971Z,7.30
2022-11-09T23:44:29.387Z,7.30
2022-11-09T23:47:16.621Z,7.30
2022-11-09T23:50:03.961Z,7.20
2022-11-09T23:52:51.077Z,7.30
2022-11-09T23:55:38.497Z,7.30
2022-11-09T23:58:26.547Z,7.30
